sensor_id;sensor_type;location;lat;lon;timestamp;pressure;altitude;pressure_sealevel;temperature;humidity
6096;BME280;25081;42.698;23.298;2023-07-28T00:00:11;95327.27;;;16.04;61.15
6096;BME280;25081;42.698;23.298;2023-07-28T00:02:21;95326.09;;;15.97;60.98
6096;BME280;25081;42.698;23.298;2023-07-28T00:04:33;95327.44;;;15.97;61.03
6096;BME280;25081;42.698;23.298;2023-07-28T00:06:42;95328.73;;;15.92;61.00
6096;BME280;25081;42.698;23.298;2023-07-28T00:08:52;95325.74;;;15.91;61.10
6096;BME280;25081;42.698;23.298;2023-07-28T00:11:03;95323.56;;;15.88;61.03
6096;BME280;25081;42.698;23.298;2023-07-28T00:13:13;95327.57;;;15.86;61.01
6096;BME280;25081;42.698;23.298;2023-07-28T00:15:24;95327.77;;;15.82;61.39
6096;BME280;25081;42.698;23.298;2023-07-28T00:17:34;95326.67;;;15.80;61.43
6096;BME280;25081;42.698;23.298;2023-07-28T00:19:44;95324.88;;;15.86;61.40
6096;BME280;25081;42.698;23.298;2023-07-28T00:21:55;95319.42;;;15.81;61.46
6096;BME280;25081;42.698;23.298;2023-07-28T00:24:06;95323.71;;;15.79;61.39
6096;BME280;25081;42.698;23.298;2023-07-28T00:26:16;95320.44;;;15.74;61.44
6096;BME280;25081;42.698;23.298;2023-07-28T00:28:27;95325.82;;;15.58;61.89
6096;BME280;25081;42.698;23.298;2023-07-28T00:30:37;95326.52;;;15.51;62.23
6096;BME280;25081;42.698;23.298;2023-07-28T00:32:47;95317.88;;;15.46;62.37
6096;BME280;25081;42.698;23.298;2023-07-28T00:35:03;95322.63;;;15.41;62.25
6096;BME280;25081;42.698;23.298;2023-07-28T00:37:13;95314.81;;;15.40;62.36
6096;BME280;25081;42.698;23.298;2023-07-28T00:39:24;95318.01;;;15.37;62.68
6096;BME280;25081;42.698;23.298;2023-07-28T00:41:34;95319.36;;;15.20;63.03
6096;BME280;25081;42.698;23.298;2023-07-28T00:43:44;95324.45;;;15.19;63.33
6096;BME280;25081;42.698;23.298;2023-07-28T00:45:55;95320.67;;;15.17;63.48
6096;BME280;25081;42.698;23.298;2023-07-28T00:48:08;95330.73;;;15.08;63.76
6096;BME280;25081;42.698;23.298;2023-07-28T00:50:17;95338.77;;;14.91;64.16
6096;BME280;25081;42.698;23.298;2023-07-28T00:52:27;95334.37;;;14.85;64.56
6096;BME280;25081;42.698;23.298;2023-07-28T00:54:37;95331.41;;;14.67;64.91
6096;BME280;25081;42.698;23.298;2023-07-28T00:56:48;95327.02;;;14.78;64.97
6096;BME280;25081;42.698;23.298;2023-07-28T00:58:58;95326.53;;;14.67;65.16
6096;BME280;25081;42.698;23.298;2023-07-28T01:01:09;95325.83;;;14.71;64.87
6096;BME280;25081;42.698;23.298;2023-07-28T01:03:19;95328.08;;;14.77;64.60
6096;BME280;25081;42.698;23.298;2023-07-28T01:05:32;95326.84;;;14.84;64.23
6096;BME280;25081;42.698;23.298;2023-07-28T01:07:43;95328.12;;;14.79;64.08
6096;BME280;25081;42.698;23.298;2023-07-28T01:09:55;95328.47;;;14.69;64.49
6096;BME280;25081;42.698;23.298;2023-07-28T01:12:06;95331.34;;;14.65;64.62
6096;BME280;25081;42.698;23.298;2023-07-28T01:14:14;95331.27;;;14.59;64.79
6096;BME280;25081;42.698;23.298;2023-07-28T01:16:24;95337.09;;;14.71;64.96
6096;BME280;25081;42.698;23.298;2023-07-28T01:18:35;95329.11;;;14.76;64.72
6096;BME280;25081;42.698;23.298;2023-07-28T01:20:45;95324.55;;;14.76;64.72
6096;BME280;25081;42.698;23.298;2023-07-28T01:23:05;95321.52;;;14.70;64.79
6096;BME280;25081;42.698;23.298;2023-07-28T01:25:16;95327.88;;;14.67;64.97
6096;BME280;25081;42.698;23.298;2023-07-28T01:27:26;95328.27;;;14.73;64.83
6096;BME280;25081;42.698;23.298;2023-07-28T01:29:36;95328.94;;;14.66;65.05
6096;BME280;25081;42.698;23.298;2023-07-28T01:31:48;95329.11;;;14.59;65.06
6096;BME280;25081;42.698;23.298;2023-07-28T01:33:58;95331.44;;;14.55;65.39
6096;BME280;25081;42.698;23.298;2023-07-28T01:36:08;95326.78;;;14.48;65.56
6096;BME280;25081;42.698;23.298;2023-07-28T01:38:19;95327.38;;;14.53;65.54
6096;BME280;25081;42.698;23.298;2023-07-28T01:40:29;95329.00;;;14.54;65.57
6096;BME280;25081;42.698;23.298;2023-07-28T01:42:40;95325.55;;;14.56;65.60
6096;BME280;25081;42.698;23.298;2023-07-28T01:44:50;95330.10;;;14.55;65.51
6096;BME280;25081;42.698;23.298;2023-07-28T01:47:01;95323.39;;;14.55;65.48
6096;BME280;25081;42.698;23.298;2023-07-28T01:49:11;95333.31;;;14.55;65.56
6096;BME280;25081;42.698;23.298;2023-07-28T01:51:22;95331.73;;;14.56;65.42
6096;BME280;25081;42.698;23.298;2023-07-28T01:53:32;95328.93;;;14.49;65.59
6096;BME280;25081;42.698;23.298;2023-07-28T01:55:43;95328.16;;;14.51;65.35
6096;BME280;25081;42.698;23.298;2023-07-28T01:57:55;95328.41;;;14.49;65.43
6096;BME280;25081;42.698;23.298;2023-07-28T02:00:07;95329.39;;;14.46;65.50
6096;BME280;25081;42.698;23.298;2023-07-28T02:02:17;95335.81;;;14.45;65.64
6096;BME280;25081;42.698;23.298;2023-07-28T02:04:28;95329.61;;;14.44;65.80
6096;BME280;25081;42.698;23.298;2023-07-28T02:06:38;95334.05;;;14.50;65.81
6096;BME280;25081;42.698;23.298;2023-07-28T02:08:49;95329.98;;;14.48;65.93
6096;BME280;25081;42.698;23.298;2023-07-28T02:10:59;95331.79;;;14.45;66.31
6096;BME280;25081;42.698;23.298;2023-07-28T02:13:10;95329.32;;;14.43;66.16
6096;BME280;25081;42.698;23.298;2023-07-28T02:15:20;95330.34;;;14.40;66.21
6096;BME280;25081;42.698;23.298;2023-07-28T02:17:31;95325.44;;;14.37;66.32
6096;BME280;25081;42.698;23.298;2023-07-28T02:19:41;95333.16;;;14.33;66.37
6096;BME280;25081;42.698;23.298;2023-07-28T02:21:52;95323.09;;;14.26;66.95
6096;BME280;25081;42.698;23.298;2023-07-28T02:24:02;95322.24;;;14.23;67.10
6096;BME280;25081;42.698;23.298;2023-07-28T02:26:13;95328.66;;;14.22;67.12
6096;BME280;25081;42.698;23.298;2023-07-28T02:28:23;95340.81;;;14.13;67.43
6096;BME280;25081;42.698;23.298;2023-07-28T02:30:34;95339.08;;;14.07;67.80
6096;BME280;25081;42.698;23.298;2023-07-28T02:32:44;95339.08;;;14.07;67.96
6096;BME280;25081;42.698;23.298;2023-07-28T02:34:55;95341.59;;;14.11;67.58
6096;BME280;25081;42.698;23.298;2023-07-28T02:37:06;95343.78;;;14.14;67.65
6096;BME280;25081;42.698;23.298;2023-07-28T02:39:16;95345.98;;;14.17;67.42
6096;BME280;25081;42.698;23.298;2023-07-28T02:41:27;95343.30;;;14.17;67.52
6096;BME280;25081;42.698;23.298;2023-07-28T02:43:37;95334.16;;;14.15;67.55
6096;BME280;25081;42.698;23.298;2023-07-28T02:45:52;95337.48;;;14.20;67.57
6096;BME280;25081;42.698;23.298;2023-07-28T02:48:00;95333.78;;;14.23;67.39
6096;BME280;25081;42.698;23.298;2023-07-28T02:50:11;95335.78;;;14.16;67.53
6096;BME280;25081;42.698;23.298;2023-07-28T02:52:21;95338.30;;;14.09;68.14
6096;BME280;25081;42.698;23.298;2023-07-28T02:54:32;95335.94;;;14.10;67.95
6096;BME280;25081;42.698;23.298;2023-07-28T02:56:42;95336.72;;;13.96;67.91
6096;BME280;25081;42.698;23.298;2023-07-28T02:58:53;95341.31;;;13.98;68.19
6096;BME280;25081;42.698;23.298;2023-07-28T03:01:03;95335.87;;;14.07;67.83
6096;BME280;25081;42.698;23.298;2023-07-28T03:03:14;95339.48;;;14.13;67.61
6096;BME280;25081;42.698;23.298;2023-07-28T03:05:24;95333.88;;;14.14;67.31
6096;BME280;25081;42.698;23.298;2023-07-28T03:07:35;95337.45;;;14.06;67.25
6096;BME280;25081;42.698;23.298;2023-07-28T03:09:45;95338.18;;;14.01;66.74
6096;BME280;25081;42.698;23.298;2023-07-28T03:11:56;95337.69;;;14.04;66.39
6096;BME280;25081;42.698;23.298;2023-07-28T03:14:06;95343.58;;;14.03;66.29
6096;BME280;25081;42.698;23.298;2023-07-28T03:16:17;95342.41;;;14.11;66.18
6096;BME280;25081;42.698;23.298;2023-07-28T03:18:27;95346.99;;;14.13;65.80
6096;BME280;25081;42.698;23.298;2023-07-28T03:20:38;95350.97;;;14.11;65.81
6096;BME280;25081;42.698;23.298;2023-07-28T03:22:48;95353.53;;;14.06;66.06
6096;BME280;25081;42.698;23.298;2023-07-28T03:24:59;95345.13;;;13.99;66.16
6096;BME280;25081;42.698;23.298;2023-07-28T03:27:09;95349.14;;;13.99;66.40
6096;BME280;25081;42.698;23.298;2023-07-28T03:29:20;95348.12;;;14.03;66.40
6096;BME280;25081;42.698;23.298;2023-07-28T03:31:30;95345.13;;;14.14;66.49
6096;BME280;25081;42.698;23.298;2023-07-28T03:33:41;95358.44;;;14.37;65.52
6096;BME280;25081;42.698;23.298;2023-07-28T03:35:51;95359.48;;;14.62;64.96
6096;BME280;25081;42.698;23.298;2023-07-28T03:38:01;95359.37;;;14.71;64.25
6096;BME280;25081;42.698;23.298;2023-07-28T03:40:12;95358.13;;;14.93;62.79
6096;BME280;25081;42.698;23.298;2023-07-28T03:42:23;95361.08;;;15.08;62.44
6096;BME280;25081;42.698;23.298;2023-07-28T03:44:33;95361.58;;;15.41;61.37
6096;BME280;25081;42.698;23.298;2023-07-28T03:46:44;95364.94;;;15.65;60.34
6096;BME280;25081;42.698;23.298;2023-07-28T03:48:54;95368.69;;;15.84;59.87
6096;BME280;25081;42.698;23.298;2023-07-28T03:51:05;95363.31;;;16.06;59.54
6096;BME280;25081;42.698;23.298;2023-07-28T03:53:16;95357.63;;;16.02;59.44
6096;BME280;25081;42.698;23.298;2023-07-28T03:55:26;95357.63;;;16.02;59.44
6096;BME280;25081;42.698;23.298;2023-07-28T03:57:37;95367.79;;;15.78;60.27
6096;BME280;25081;42.698;23.298;2023-07-28T03:59:47;95367.87;;;15.30;61.35
6096;BME280;25081;42.698;23.298;2023-07-28T04:01:58;95364.11;;;14.81;63.08
6096;BME280;25081;42.698;23.298;2023-07-28T04:04:08;95367.28;;;14.64;63.84
6096;BME280;25081;42.698;23.298;2023-07-28T04:06:18;95358.70;;;14.64;64.27
6096;BME280;25081;42.698;23.298;2023-07-28T04:08:29;95366.19;;;14.62;64.13
6096;BME280;25081;42.698;23.298;2023-07-28T04:10:39;95363.80;;;14.49;64.73
6096;BME280;25081;42.698;23.298;2023-07-28T04:12:50;95366.97;;;14.34;65.03
6096;BME280;25081;42.698;23.298;2023-07-28T04:15:00;95372.34;;;14.20;65.74
6096;BME280;25081;42.698;23.298;2023-07-28T04:17:11;95369.98;;;14.49;64.94
6096;BME280;25081;42.698;23.298;2023-07-28T04:19:21;95372.85;;;14.59;64.35
6096;BME280;25081;42.698;23.298;2023-07-28T04:21:32;95370.14;;;14.31;65.05
6096;BME280;25081;42.698;23.298;2023-07-28T04:23:43;95372.16;;;14.38;65.29
6096;BME280;25081;42.698;23.298;2023-07-28T04:25:53;95378.64;;;14.54;65.21
6096;BME280;25081;42.698;23.298;2023-07-28T04:28:04;95369.36;;;14.59;64.74
6096;BME280;25081;42.698;23.298;2023-07-28T04:30:15;95380.51;;;14.53;65.01
6096;BME280;25081;42.698;23.298;2023-07-28T04:32:25;95374.66;;;14.56;65.10
6096;BME280;25081;42.698;23.298;2023-07-28T04:34:36;95381.68;;;14.57;65.28
6096;BME280;25081;42.698;23.298;2023-07-28T04:36:46;95377.15;;;14.46;65.25
6096;BME280;25081;42.698;23.298;2023-07-28T04:38:57;95369.53;;;14.55;64.87
6096;BME280;25081;42.698;23.298;2023-07-28T04:41:08;95369.81;;;14.56;64.95
6096;BME280;25081;42.698;23.298;2023-07-28T04:43:19;95371.69;;;14.55;64.82
6096;BME280;25081;42.698;23.298;2023-07-28T04:45:29;95377.09;;;14.86;64.77
6096;BME280;25081;42.698;23.298;2023-07-28T04:47:40;95376.52;;;15.88;61.37
6096;BME280;25081;42.698;23.298;2023-07-28T04:49:51;95365.13;;;18.77;52.24
6096;BME280;25081;42.698;23.298;2023-07-28T04:52:01;95365.13;;;18.77;52.24
6096;BME280;25081;42.698;23.298;2023-07-28T04:54:12;95359.49;;;19.80;49.40
6096;BME280;25081;42.698;23.298;2023-07-28T04:56:22;95355.95;;;20.62;47.18
6096;BME280;25081;42.698;23.298;2023-07-28T04:58:33;95360.95;;;21.33;45.26
6096;BME280;25081;42.698;23.298;2023-07-28T05:00:44;95361.68;;;21.44;43.79
6096;BME280;25081;42.698;23.298;2023-07-28T05:02:54;95357.13;;;21.95;42.08
6096;BME280;25081;42.698;23.298;2023-07-28T05:05:05;95354.27;;;21.13;44.66
6096;BME280;25081;42.698;23.298;2023-07-28T05:07:16;95353.45;;;21.81;43.14
6096;BME280;25081;42.698;23.298;2023-07-28T05:09:26;95352.61;;;23.00;40.31
6096;BME280;25081;42.698;23.298;2023-07-28T05:11:37;95356.89;;;23.22;39.15
6096;BME280;25081;42.698;23.298;2023-07-28T05:13:48;95354.24;;;22.77;39.87
6096;BME280;25081;42.698;23.298;2023-07-28T05:15:58;95360.58;;;22.30;40.98
6096;BME280;25081;42.698;23.298;2023-07-28T05:18:09;95356.79;;;22.02;40.83
6096;BME280;25081;42.698;23.298;2023-07-28T05:20:19;95351.47;;;21.89;42.26
6096;BME280;25081;42.698;23.298;2023-07-28T05:22:30;95356.00;;;22.25;40.81
6096;BME280;25081;42.698;23.298;2023-07-28T05:24:40;95352.36;;;23.15;39.03
6096;BME280;25081;42.698;23.298;2023-07-28T05:26:51;95351.23;;;24.00;37.29
6096;BME280;25081;42.698;23.298;2023-07-28T05:29:01;95345.36;;;24.64;36.74
6096;BME280;25081;42.698;23.298;2023-07-28T05:31:12;95348.42;;;25.24;34.17
6096;BME280;25081;42.698;23.298;2023-07-28T05:33:22;95355.68;;;23.96;36.59
6096;BME280;25081;42.698;23.298;2023-07-28T05:35:33;95355.23;;;24.05;36.77
6096;BME280;25081;42.698;23.298;2023-07-28T05:37:43;95344.28;;;24.51;36.47
6096;BME280;25081;42.698;23.298;2023-07-28T05:39:54;95356.67;;;23.70;37.49
6096;BME280;25081;42.698;23.298;2023-07-28T05:42:04;95352.23;;;23.41;37.99
6096;BME280;25081;42.698;23.298;2023-07-28T05:44:15;95356.14;;;24.69;36.02
6096;BME280;25081;42.698;23.298;2023-07-28T05:46:26;95341.84;;;25.25;35.29
6096;BME280;25081;42.698;23.298;2023-07-28T05:48:36;95350.23;;;23.31;38.09
6096;BME280;25081;42.698;23.298;2023-07-28T05:50:47;95342.42;;;22.46;39.72
6096;BME280;25081;42.698;23.298;2023-07-28T05:52:57;95341.86;;;23.27;37.98
6096;BME280;25081;42.698;23.298;2023-07-28T05:55:09;95342.73;;;23.23;38.01
6096;BME280;25081;42.698;23.298;2023-07-28T05:57:20;95343.48;;;22.26;40.57
6096;BME280;25081;42.698;23.298;2023-07-28T05:59:30;95331.56;;;23.05;38.79
6096;BME280;25081;42.698;23.298;2023-07-28T06:01:41;95331.59;;;23.22;38.99
6096;BME280;25081;42.698;23.298;2023-07-28T06:03:51;95330.70;;;24.74;36.70
6096;BME280;25081;42.698;23.298;2023-07-28T06:06:02;95327.84;;;25.29;34.91
6096;BME280;25081;42.698;23.298;2023-07-28T06:08:13;95324.72;;;26.09;33.22
6096;BME280;25081;42.698;23.298;2023-07-28T06:10:24;95329.03;;;26.41;33.01
6096;BME280;25081;42.698;23.298;2023-07-28T06:12:34;95321.16;;;27.22;31.59
6096;BME280;25081;42.698;23.298;2023-07-28T06:14:45;95319.34;;;27.61;30.86
6096;BME280;25081;42.698;23.298;2023-07-28T06:16:55;95321.86;;;27.43;30.85
6096;BME280;25081;42.698;23.298;2023-07-28T06:19:06;95320.39;;;26.93;30.96
6096;BME280;25081;42.698;23.298;2023-07-28T06:21:16;95323.36;;;26.94;31.47
6096;BME280;25081;42.698;23.298;2023-07-28T06:23:27;95319.89;;;25.94;33.15
6096;BME280;25081;42.698;23.298;2023-07-28T06:25:37;95323.20;;;26.14;33.21
6096;BME280;25081;42.698;23.298;2023-07-28T06:27:48;95320.70;;;26.46;32.90
6096;BME280;25081;42.698;23.298;2023-07-28T06:29:58;95315.81;;;27.43;30.75
6096;BME280;25081;42.698;23.298;2023-07-28T06:32:09;95319.36;;;27.35;30.96
6096;BME280;25081;42.698;23.298;2023-07-28T06:34:20;95321.88;;;23.97;36.61
6096;BME280;25081;42.698;23.298;2023-07-28T06:36:30;95324.76;;;23.73;37.79
6096;BME280;25081;42.698;23.298;2023-07-28T06:38:41;95314.19;;;25.93;33.70
6096;BME280;25081;42.698;23.298;2023-07-28T06:40:53;95307.48;;;26.39;32.42
6096;BME280;25081;42.698;23.298;2023-07-28T06:43:03;95308.08;;;27.45;31.16
6096;BME280;25081;42.698;23.298;2023-07-28T06:45:14;95309.45;;;27.36;30.87
6096;BME280;25081;42.698;23.298;2023-07-28T06:47:24;95308.70;;;26.99;32.20
6096;BME280;25081;42.698;23.298;2023-07-28T06:49:35;95311.33;;;25.34;34.57
6096;BME280;25081;42.698;23.298;2023-07-28T06:51:45;95308.33;;;24.74;35.32
6096;BME280;25081;42.698;23.298;2023-07-28T06:53:56;95310.77;;;25.99;33.97
6096;BME280;25081;42.698;23.298;2023-07-28T06:56:07;95311.20;;;26.32;33.05
6096;BME280;25081;42.698;23.298;2023-07-28T06:58:17;95312.17;;;26.85;31.47
6096;BME280;25081;42.698;23.298;2023-07-28T07:00:28;95306.70;;;27.54;30.70
6096;BME280;25081;42.698;23.298;2023-07-28T07:02:38;95313.53;;;27.62;30.93
6096;BME280;25081;42.698;23.298;2023-07-28T07:04:49;95311.06;;;27.29;31.16
6096;BME280;25081;42.698;23.298;2023-07-28T07:06:59;95309.80;;;26.23;32.92
6096;BME280;25081;42.698;23.298;2023-07-28T07:09:10;95306.86;;;26.51;32.60
6096;BME280;25081;42.698;23.298;2023-07-28T07:11:20;95319.46;;;24.50;35.96
6096;BME280;25081;42.698;23.298;2023-07-28T07:13:31;95310.22;;;26.39;33.39
6096;BME280;25081;42.698;23.298;2023-07-28T07:15:41;95304.28;;;27.52;31.48
6096;BME280;25081;42.698;23.298;2023-07-28T07:17:52;95305.94;;;28.09;30.38
6096;BME280;25081;42.698;23.298;2023-07-28T07:20:03;95308.66;;;26.36;32.59
6096;BME280;25081;42.698;23.298;2023-07-28T07:22:14;95308.11;;;25.21;34.62
6096;BME280;25081;42.698;23.298;2023-07-28T07:24:24;95300.34;;;26.95;31.78
6096;BME280;25081;42.698;23.298;2023-07-28T07:26:34;95305.84;;;28.85;28.94
6096;BME280;25081;42.698;23.298;2023-07-28T07:28:45;95306.45;;;29.80;27.40
6096;BME280;25081;42.698;23.298;2023-07-28T07:30:55;95304.55;;;29.99;27.46
6096;BME280;25081;42.698;23.298;2023-07-28T07:33:06;95306.19;;;26.65;32.14
6096;BME280;25081;42.698;23.298;2023-07-28T07:35:16;95311.95;;;28.40;29.41
6096;BME280;25081;42.698;23.298;2023-07-28T07:37:27;95314.08;;;28.85;29.00
6096;BME280;25081;42.698;23.298;2023-07-28T07:39:37;95314.04;;;27.21;32.11
6096;BME280;25081;42.698;23.298;2023-07-28T07:41:48;95315.34;;;27.32;31.44
6096;BME280;25081;42.698;23.298;2023-07-28T07:43:58;95310.92;;;25.83;33.00
6096;BME280;25081;42.698;23.298;2023-07-28T07:46:09;95319.23;;;25.66;33.97
6096;BME280;25081;42.698;23.298;2023-07-28T07:48:19;95314.08;;;26.38;33.80
6096;BME280;25081;42.698;23.298;2023-07-28T07:50:30;95309.03;;;26.51;32.39
6096;BME280;25081;42.698;23.298;2023-07-28T07:52:40;95317.84;;;25.13;34.79
6096;BME280;25081;42.698;23.298;2023-07-28T07:54:51;95323.55;;;26.21;33.30
6096;BME280;25081;42.698;23.298;2023-07-28T07:57:01;95311.29;;;26.49;32.46
6096;BME280;25081;42.698;23.298;2023-07-28T07:59:12;95313.89;;;27.18;31.76
6096;BME280;25081;42.698;23.298;2023-07-28T08:01:22;95313.53;;;29.00;28.74
6096;BME280;25081;42.698;23.298;2023-07-28T08:03:33;95312.33;;;30.73;26.36
6096;BME280;25081;42.698;23.298;2023-07-28T08:05:43;95318.61;;;30.86;26.01
6096;BME280;25081;42.698;23.298;2023-07-28T08:07:54;95309.08;;;30.28;26.19
6096;BME280;25081;42.698;23.298;2023-07-28T08:10:06;95314.27;;;26.31;31.89
6096;BME280;25081;42.698;23.298;2023-07-28T08:12:16;95315.42;;;25.34;34.38
6096;BME280;25081;42.698;23.298;2023-07-28T08:14:27;95307.33;;;28.00;30.13
6096;BME280;25081;42.698;23.298;2023-07-28T08:16:37;95298.69;;;29.28;28.23
6096;BME280;25081;42.698;23.298;2023-07-28T08:18:48;95301.75;;;29.75;27.80
6096;BME280;25081;42.698;23.298;2023-07-28T08:20:59;95300.50;;;30.66;26.32
6096;BME280;25081;42.698;23.298;2023-07-28T08:23:09;95293.55;;;31.99;24.80
6096;BME280;25081;42.698;23.298;2023-07-28T08:25:20;95288.48;;;32.90;23.91
6096;BME280;25081;42.698;23.298;2023-07-28T08:27:30;95291.44;;;32.56;24.03
6096;BME280;25081;42.698;23.298;2023-07-28T08:29:41;95294.42;;;32.03;24.79
6096;BME280;25081;42.698;23.298;2023-07-28T08:31:52;95291.59;;;32.00;23.97
6096;BME280;25081;42.698;23.298;2023-07-28T08:34:02;95295.09;;;31.34;24.87
6096;BME280;25081;42.698;23.298;2023-07-28T08:36:13;95287.64;;;30.83;25.73
6096;BME280;25081;42.698;23.298;2023-07-28T08:38:23;95288.56;;;30.62;26.87
6096;BME280;25081;42.698;23.298;2023-07-28T08:40:35;95291.98;;;31.36;26.07
6096;BME280;25081;42.698;23.298;2023-07-28T08:42:46;95287.18;;;31.61;24.75
6096;BME280;25081;42.698;23.298;2023-07-28T08:44:56;95285.04;;;32.61;23.61
6096;BME280;25081;42.698;23.298;2023-07-28T08:47:07;95287.01;;;33.12;23.32
6096;BME280;25081;42.698;23.298;2023-07-28T08:49:18;95277.13;;;33.78;22.50
6096;BME280;25081;42.698;23.298;2023-07-28T08:51:29;95280.81;;;33.28;22.53
6096;BME280;25081;42.698;23.298;2023-07-28T08:53:39;95281.13;;;33.33;22.65
6096;BME280;25081;42.698;23.298;2023-07-28T08:55:50;95276.33;;;33.88;22.34
6096;BME280;25081;42.698;23.298;2023-07-28T08:58:16;95272.69;;;34.06;21.98
6096;BME280;25081;42.698;23.298;2023-07-28T09:00:26;95270.03;;;34.00;21.29
6096;BME280;25081;42.698;23.298;2023-07-28T09:02:36;95266.41;;;33.19;22.35
6096;BME280;25081;42.698;23.298;2023-07-28T09:04:47;95263.36;;;33.72;22.61
6096;BME280;25081;42.698;23.298;2023-07-28T09:06:57;95252.91;;;33.85;21.55
6096;BME280;25081;42.698;23.298;2023-07-28T09:09:08;95255.45;;;34.03;22.24
6096;BME280;25081;42.698;23.298;2023-07-28T09:11:18;95249.22;;;32.90;23.16
6096;BME280;25081;42.698;23.298;2023-07-28T09:13:34;95244.76;;;33.30;22.61
6096;BME280;25081;42.698;23.298;2023-07-28T09:15:39;95251.34;;;32.05;24.63
6096;BME280;25081;42.698;23.298;2023-07-28T09:17:50;95243.68;;;32.30;23.92
6096;BME280;25081;42.698;23.298;2023-07-28T09:20:00;95244.50;;;32.56;23.64
6096;BME280;25081;42.698;23.298;2023-07-28T09:22:11;95237.92;;;29.57;26.34
6096;BME280;25081;42.698;23.298;2023-07-28T09:24:21;95242.55;;;28.10;28.45
6096;BME280;25081;42.698;23.298;2023-07-28T09:26:38;95230.55;;;28.95;28.22
6096;BME280;25081;42.698;23.298;2023-07-28T09:28:49;95222.63;;;30.72;25.66
6096;BME280;25081;42.698;23.298;2023-07-28T09:30:59;95219.47;;;31.76;23.87
6096;BME280;25081;42.698;23.298;2023-07-28T09:33:10;95213.28;;;29.48;26.92
6096;BME280;25081;42.698;23.298;2023-07-28T09:35:21;95204.56;;;31.15;24.83
6096;BME280;25081;42.698;23.298;2023-07-28T09:37:31;95206.33;;;29.30;26.81
6096;BME280;25081;42.698;23.298;2023-07-28T09:39:41;95204.52;;;29.85;27.28
6096;BME280;25081;42.698;23.298;2023-07-28T09:41:52;95199.04;;;31.49;24.68
6096;BME280;25081;42.698;23.298;2023-07-28T09:44:02;95193.12;;;32.61;23.58
6096;BME280;25081;42.698;23.298;2023-07-28T09:46:13;95187.44;;;32.98;22.74
6096;BME280;25081;42.698;23.298;2023-07-28T09:48:23;95185.77;;;32.49;23.13
6096;BME280;25081;42.698;23.298;2023-07-28T09:50:35;95177.52;;;32.78;23.75
6096;BME280;25081;42.698;23.298;2023-07-28T09:52:45;95175.66;;;33.40;21.68
6096;BME280;25081;42.698;23.298;2023-07-28T09:54:54;95176.78;;;32.71;22.48
6096;BME280;25081;42.698;23.298;2023-07-28T09:57:06;95179.67;;;33.04;22.90
6096;BME280;25081;42.698;23.298;2023-07-28T09:59:16;95183.39;;;32.92;22.54
6096;BME280;25081;42.698;23.298;2023-07-28T10:01:27;95179.11;;;30.31;25.33
6096;BME280;25081;42.698;23.298;2023-07-28T10:03:38;95178.67;;;31.38;24.20
6096;BME280;25081;42.698;23.298;2023-07-28T10:05:48;95173.10;;;32.23;23.82
6096;BME280;25081;42.698;23.298;2023-07-28T10:07:59;95174.91;;;33.34;22.59
6096;BME280;25081;42.698;23.298;2023-07-28T10:10:11;95171.83;;;33.91;21.89
6096;BME280;25081;42.698;23.298;2023-07-28T10:12:24;95167.25;;;33.89;22.12
6096;BME280;25081;42.698;23.298;2023-07-28T10:14:36;95167.52;;;33.83;21.82
6096;BME280;25081;42.698;23.298;2023-07-28T10:16:46;95170.47;;;31.19;24.79
6096;BME280;25081;42.698;23.298;2023-07-28T10:18:57;95169.48;;;31.33;25.55
6096;BME280;25081;42.698;23.298;2023-07-28T10:21:08;95169.04;;;31.75;25.37
6096;BME280;25081;42.698;23.298;2023-07-28T10:23:20;95162.79;;;32.90;22.93
6096;BME280;25081;42.698;23.298;2023-07-28T10:25:28;95157.19;;;33.57;22.33
6096;BME280;25081;42.698;23.298;2023-07-28T10:27:43;95155.64;;;33.70;22.14
6096;BME280;25081;42.698;23.298;2023-07-28T10:29:58;95159.28;;;32.73;22.64
6096;BME280;25081;42.698;23.298;2023-07-28T10:32:09;95157.20;;;31.37;24.41
6096;BME280;25081;42.698;23.298;2023-07-28T10:34:19;95150.41;;;31.56;24.46
6096;BME280;25081;42.698;23.298;2023-07-28T10:36:34;95143.94;;;32.57;23.49
6096;BME280;25081;42.698;23.298;2023-07-28T10:38:45;95141.48;;;33.00;23.20
6096;BME280;25081;42.698;23.298;2023-07-28T10:41:05;95140.30;;;33.30;22.50
6096;BME280;25081;42.698;23.298;2023-07-28T10:43:17;95133.41;;;33.76;21.42
6096;BME280;25081;42.698;23.298;2023-07-28T10:45:28;95134.27;;;33.57;21.67
6096;BME280;25081;42.698;23.298;2023-07-28T10:47:38;95136.39;;;32.54;22.90
6096;BME280;25081;42.698;23.298;2023-07-28T10:49:49;95134.61;;;31.63;24.32
6096;BME280;25081;42.698;23.298;2023-07-28T10:51:59;95134.72;;;32.24;23.80
6096;BME280;25081;42.698;23.298;2023-07-28T10:54:10;95125.63;;;32.68;23.31
6096;BME280;25081;42.698;23.298;2023-07-28T10:56:20;95123.59;;;32.45;22.81
6096;BME280;25081;42.698;23.298;2023-07-28T10:58:32;95115.61;;;32.25;23.76
6096;BME280;25081;42.698;23.298;2023-07-28T11:00:42;95119.30;;;32.67;23.74
6096;BME280;25081;42.698;23.298;2023-07-28T11:02:53;95119.52;;;32.78;23.05
6096;BME280;25081;42.698;23.298;2023-07-28T11:05:11;95111.96;;;31.85;24.33
6096;BME280;25081;42.698;23.298;2023-07-28T11:07:22;95117.02;;;31.83;24.54
6096;BME280;25081;42.698;23.298;2023-07-28T11:09:32;95112.92;;;32.28;24.00
6096;BME280;25081;42.698;23.298;2023-07-28T11:11:43;95108.27;;;30.62;24.87
6096;BME280;25081;42.698;23.298;2023-07-28T11:13:53;95109.78;;;30.88;25.38
6096;BME280;25081;42.698;23.298;2023-07-28T11:16:05;95105.09;;;31.10;25.31
6096;BME280;25081;42.698;23.298;2023-07-28T11:18:17;95099.22;;;31.33;25.27
6096;BME280;25081;42.698;23.298;2023-07-28T11:20:27;95093.44;;;31.70;24.74
6096;BME280;25081;42.698;23.298;2023-07-28T11:22:38;95088.92;;;32.13;23.55
6096;BME280;25081;42.698;23.298;2023-07-28T11:24:52;95076.83;;;32.27;23.40
6096;BME280;25081;42.698;23.298;2023-07-28T11:27:04;95079.94;;;32.16;23.12
6096;BME280;25081;42.698;23.298;2023-07-28T11:29:14;95083.86;;;32.15;23.37
6096;BME280;25081;42.698;23.298;2023-07-28T11:31:25;95083.34;;;31.84;22.98